sensor_id;sensor_type;location;lat;lon;timestamp;pressure;altitude;pressure_sealevel;temperature;humidity
55733;BME280;41637;52.364;9.910;2023-04-06T00:00:38;101263.76;;;-0.53;69.95
55733;BME280;41637;52.364;9.910;2023-04-06T00:03:04;101260.60;;;-0.55;70.07
55733;BME280;41637;52.364;9.910;2023-04-06T00:05:32;101262.59;;;-0.57;70.31
55733;BME280;41637;52.364;9.910;2023-04-06T00:07:59;101259.77;;;-0.59;70.41
55733;BME280;41637;52.364;9.910;2023-04-06T00:10:26;101256.60;;;-0.62;70.57
55733;BME280;41637;52.364;9.910;2023-04-06T00:12:53;101258.36;;;-0.62;70.81
55733;BME280;41637;52.364;9.910;2023-04-06T00:15:20;101253.45;;;-0.64;70.80
55733;BME280;41637;52.364;9.910;2023-04-06T00:17:47;101254.78;;;-0.66;71.23
55733;BME280;41637;52.364;9.910;2023-04-06T00:20:14;101252.11;;;-0.68;71.15
55733;BME280;41637;52.364;9.910;2023-04-06T00:22:42;101251.88;;;-0.70;71.35
55733;BME280;41637;52.364;9.910;2023-04-06T00:25:10;101249.81;;;-0.73;71.34
55733;BME280;41637;52.364;9.910;2023-04-06T00:27:38;101249.42;;;-0.75;71.69
55733;BME280;41637;52.364;9.910;2023-04-06T00:30:08;101248.67;;;-0.77;71.65
55733;BME280;41637;52.364;9.910;2023-04-06T00:32:35;101248.67;;;-0.81;71.94
55733;BME280;41637;52.364;9.910;2023-04-06T00:35:03;101248.05;;;-0.82;72.02
55733;BME280;41637;52.364;9.910;2023-04-06T00:37:31;101242.31;;;-0.85;72.26
55733;BME280;41637;52.364;9.910;2023-04-06T00:39:58;101241.91;;;-0.87;72.26
55733;BME280;41637;52.364;9.910;2023-04-06T00:42:25;101240.17;;;-0.90;72.56
55733;BME280;41637;52.364;9.910;2023-04-06T00:44:57;101242.18;;;-0.92;72.71
55733;BME280;41637;52.364;9.910;2023-04-06T00:47:25;101241.43;;;-0.94;72.80
55733;BME280;41637;52.364;9.910;2023-04-06T00:49:53;101241.73;;;-0.96;72.94
55733;BME280;41637;52.364;9.910;2023-04-06T00:52:20;101238.34;;;-0.98;73.09
55733;BME280;41637;52.364;9.910;2023-04-06T00:54:48;101237.77;;;-1.00;73.09
55733;BME280;41637;52.364;9.910;2023-04-06T00:57:15;101232.96;;;-1.01;73.14
55733;BME280;41637;52.364;9.910;2023-04-06T00:59:42;101228.23;;;-1.03;73.21
55733;BME280;41637;52.364;9.910;2023-04-06T01:02:09;101224.10;;;-1.04;73.35
55733;BME280;41637;52.364;9.910;2023-04-06T01:04:38;101224.13;;;-1.04;73.42
55733;BME280;41637;52.364;9.910;2023-04-06T01:07:06;101224.02;;;-1.05;73.43
55733;BME280;41637;52.364;9.910;2023-04-06T01:09:32;101222.33;;;-1.06;73.48
55733;BME280;41637;52.364;9.910;2023-04-06T01:11:59;101224.43;;;-1.07;73.55
55733;BME280;41637;52.364;9.910;2023-04-06T01:14:26;101218.31;;;-1.08;73.63
55733;BME280;41637;52.364;9.910;2023-04-06T01:16:53;101217.06;;;-1.11;73.64
55733;BME280;41637;52.364;9.910;2023-04-06T01:19:21;101213.19;;;-1.13;73.73
55733;BME280;41637;52.364;9.910;2023-04-06T01:21:48;101210.70;;;-1.15;73.95
55733;BME280;41637;52.364;9.910;2023-04-06T01:24:17;101208.90;;;-1.17;73.97
55733;BME280;41637;52.364;9.910;2023-04-06T01:26:45;101207.65;;;-1.19;74.18
55733;BME280;41637;52.364;9.910;2023-04-06T01:29:12;101205.45;;;-1.20;74.03
55733;BME280;41637;52.364;9.910;2023-04-06T01:31:39;101211.04;;;-1.21;74.24
55733;BME280;41637;52.364;9.910;2023-04-06T01:34:06;101206.40;;;-1.22;74.48
55733;BME280;41637;52.364;9.910;2023-04-06T01:36:33;101205.92;;;-1.23;74.42
55733;BME280;41637;52.364;9.910;2023-04-06T01:38:59;101201.77;;;-1.23;74.49
55733;BME280;41637;52.364;9.910;2023-04-06T01:41:26;101202.64;;;-1.23;74.53
55733;BME280;41637;52.364;9.910;2023-04-06T01:43:53;101203.89;;;-1.24;74.57
55733;BME280;41637;52.364;9.910;2023-04-06T01:46:22;101202.55;;;-1.25;74.80
55733;BME280;41637;52.364;9.910;2023-04-06T01:48:49;101205.73;;;-1.26;74.74
55733;BME280;41637;52.364;9.910;2023-04-06T01:51:16;101203.55;;;-1.27;74.91
55733;BME280;41637;52.364;9.910;2023-04-06T01:53:43;101205.56;;;-1.29;74.91
55733;BME280;41637;52.364;9.910;2023-04-06T01:56:10;101203.70;;;-1.30;75.01
55733;BME280;41637;52.364;9.910;2023-04-06T01:58:37;101203.27;;;-1.31;74.89
55733;BME280;41637;52.364;9.910;2023-04-06T02:01:03;101204.72;;;-1.32;75.02
55733;BME280;41637;52.364;9.910;2023-04-06T02:03:30;101202.57;;;-1.34;75.08
55733;BME280;41637;52.364;9.910;2023-04-06T02:05:57;101202.02;;;-1.37;74.93
55733;BME280;41637;52.364;9.910;2023-04-06T02:08:24;101198.17;;;-1.40;75.22
55733;BME280;41637;52.364;9.910;2023-04-06T02:10:51;101198.45;;;-1.41;75.39
55733;BME280;41637;52.364;9.910;2023-04-06T02:13:18;101199.55;;;-1.43;75.33
55733;BME280;41637;52.364;9.910;2023-04-06T02:15:45;101195.52;;;-1.45;75.27
55733;BME280;41637;52.364;9.910;2023-04-06T02:18:12;101196.00;;;-1.47;75.30
55733;BME280;41637;52.364;9.910;2023-04-06T02:20:39;101194.71;;;-1.49;75.29
55733;BME280;41637;52.364;9.910;2023-04-06T02:23:07;101194.13;;;-1.51;75.46
55733;BME280;41637;52.364;9.910;2023-04-06T02:25:33;101191.75;;;-1.52;75.77
55733;BME280;41637;52.364;9.910;2023-04-06T02:28:00;101190.09;;;-1.53;75.87
55733;BME280;41637;52.364;9.910;2023-04-06T02:30:27;101186.75;;;-1.56;76.10
55733;BME280;41637;52.364;9.910;2023-04-06T02:32:55;101185.63;;;-1.57;76.24
55733;BME280;41637;52.364;9.910;2023-04-06T02:35:22;101187.58;;;-1.58;76.24
55733;BME280;41637;52.364;9.910;2023-04-06T02:37:49;101183.34;;;-1.60;76.30
55733;BME280;41637;52.364;9.910;2023-04-06T02:40:15;101183.91;;;-1.60;76.39
55733;BME280;41637;52.364;9.910;2023-04-06T02:42:42;101181.16;;;-1.61;76.37
55733;BME280;41637;52.364;9.910;2023-04-06T02:45:09;101179.99;;;-1.62;76.12
55733;BME280;41637;52.364;9.910;2023-04-06T02:47:36;101179.84;;;-1.62;76.19
55733;BME280;41637;52.364;9.910;2023-04-06T02:50:03;101181.83;;;-1.64;76.27
55733;BME280;41637;52.364;9.910;2023-04-06T02:52:30;101179.78;;;-1.65;76.35
55733;BME280;41637;52.364;9.910;2023-04-06T02:54:56;101177.10;;;-1.66;76.31
55733;BME280;41637;52.364;9.910;2023-04-06T02:57:23;101174.81;;;-1.69;76.25
55733;BME280;41637;52.364;9.910;2023-04-06T02:59:50;101177.33;;;-1.71;76.46
55733;BME280;41637;52.364;9.910;2023-04-06T03:02:16;101177.23;;;-1.72;76.38
55733;BME280;41637;52.364;9.910;2023-04-06T03:04:44;101176.14;;;-1.74;76.59
55733;BME280;41637;52.364;9.910;2023-04-06T03:07:10;101175.98;;;-1.78;76.63
55733;BME280;41637;52.364;9.910;2023-04-06T03:09:37;101174.60;;;-1.81;76.78
55733;BME280;41637;52.364;9.910;2023-04-06T03:12:05;101169.10;;;-1.85;76.84
55733;BME280;41637;52.364;9.910;2023-04-06T03:14:35;101172.69;;;-1.87;76.92
55733;BME280;41637;52.364;9.910;2023-04-06T03:17:01;101168.60;;;-1.89;77.18
55733;BME280;41637;52.364;9.910;2023-04-06T03:19:28;101168.23;;;-1.91;77.16
55733;BME280;41637;52.364;9.910;2023-04-06T03:21:55;101169.69;;;-1.92;77.66
55733;BME280;41637;52.364;9.910;2023-04-06T03:24:22;101168.01;;;-1.94;77.98
55733;BME280;41637;52.364;9.910;2023-04-06T03:26:48;101170.63;;;-1.94;78.07
55733;BME280;41637;52.364;9.910;2023-04-06T03:29:15;101167.13;;;-1.93;78.26
55733;BME280;41637;52.364;9.910;2023-04-06T03:31:42;101170.73;;;-1.93;78.31
55733;BME280;41637;52.364;9.910;2023-04-06T03:34:09;101171.78;;;-1.93;78.29
55733;BME280;41637;52.364;9.910;2023-04-06T03:36:36;101173.11;;;-1.92;78.42
55733;BME280;41637;52.364;9.910;2023-04-06T03:39:03;101172.29;;;-1.93;78.32
55733;BME280;41637;52.364;9.910;2023-04-06T03:41:30;101169.40;;;-1.94;78.90
55733;BME280;41637;52.364;9.910;2023-04-06T03:43:56;101172.20;;;-1.94;78.89
55733;BME280;41637;52.364;9.910;2023-04-06T03:46:26;101169.43;;;-1.94;78.99
55733;BME280;41637;52.364;9.910;2023-04-06T03:48:53;101170.02;;;-1.95;79.00
55733;BME280;41637;52.364;9.910;2023-04-06T03:51:19;101167.52;;;-1.97;78.95
55733;BME280;41637;52.364;9.910;2023-04-06T03:53:47;101166.86;;;-1.98;79.11
55733;BME280;41637;52.364;9.910;2023-04-06T03:56:13;101167.13;;;-2.00;79.17
55733;BME280;41637;52.364;9.910;2023-04-06T03:58:41;101170.02;;;-2.02;79.14
55733;BME280;41637;52.364;9.910;2023-04-06T04:01:08;101174.17;;;-2.02;79.27
55733;BME280;41637;52.364;9.910;2023-04-06T04:03:34;101172.73;;;-2.03;79.43
55733;BME280;41637;52.364;9.910;2023-04-06T04:06:01;101176.00;;;-2.04;79.52
55733;BME280;41637;52.364;9.910;2023-04-06T04:08:28;101176.20;;;-2.04;79.41
55733;BME280;41637;52.364;9.910;2023-04-06T04:10:55;101171.59;;;-2.06;79.65
55733;BME280;41637;52.364;9.910;2023-04-06T04:13:22;101177.16;;;-2.07;79.75
55733;BME280;41637;52.364;9.910;2023-04-06T04:15:48;101175.43;;;-2.06;79.65
55733;BME280;41637;52.364;9.910;2023-04-06T04:18:15;101175.14;;;-2.07;79.72
55733;BME280;41637;52.364;9.910;2023-04-06T04:20:42;101173.55;;;-2.07;79.84
55733;BME280;41637;52.364;9.910;2023-04-06T04:23:09;101175.21;;;-2.05;80.04
55733;BME280;41637;52.364;9.910;2023-04-06T04:25:35;101172.87;;;-2.03;80.15
55733;BME280;41637;52.364;9.910;2023-04-06T04:28:02;101175.88;;;-2.01;80.09
55733;BME280;41637;52.364;9.910;2023-04-06T04:30:29;101170.92;;;-1.99;79.95
55733;BME280;41637;52.364;9.910;2023-04-06T04:32:56;101171.01;;;-1.98;80.22
55733;BME280;41637;52.364;9.910;2023-04-06T04:35:22;101173.51;;;-1.96;80.30
55733;BME280;41637;52.364;9.910;2023-04-06T04:37:49;101173.94;;;-1.94;80.39
55733;BME280;41637;52.364;9.910;2023-04-06T04:40:16;101173.85;;;-1.93;80.55
55733;BME280;41637;52.364;9.910;2023-04-06T04:42:43;101175.17;;;-1.91;80.47
55733;BME280;41637;52.364;9.910;2023-04-06T04:45:10;101174.61;;;-1.91;80.36
55733;BME280;41637;52.364;9.910;2023-04-06T04:47:37;101174.83;;;-1.89;80.06
55733;BME280;41637;52.364;9.910;2023-04-06T04:50:05;101175.12;;;-1.87;80.07
55733;BME280;41637;52.364;9.910;2023-04-06T04:52:32;101176.56;;;-1.85;79.95
55733;BME280;41637;52.364;9.910;2023-04-06T04:54:59;101176.69;;;-1.84;79.89
55733;BME280;41637;52.364;9.910;2023-04-06T04:57:25;101173.14;;;-1.83;79.79
55733;BME280;41637;52.364;9.910;2023-04-06T04:59:52;101174.63;;;-1.81;79.87
55733;BME280;41637;52.364;9.910;2023-04-06T05:02:20;101172.44;;;-1.79;79.77
55733;BME280;41637;52.364;9.910;2023-04-06T05:04:47;101170.43;;;-1.77;79.57
55733;BME280;41637;52.364;9.910;2023-04-06T05:07:14;101176.55;;;-1.75;79.73
55733;BME280;41637;52.364;9.910;2023-04-06T05:09:42;101175.85;;;-1.72;79.57
55733;BME280;41637;52.364;9.910;2023-04-06T05:12:09;101173.10;;;-1.69;79.62
55733;BME280;41637;52.364;9.910;2023-04-06T05:14:36;101178.60;;;-1.65;79.67
55733;BME280;41637;52.364;9.910;2023-04-06T05:17:03;101179.56;;;-1.60;79.68
55733;BME280;41637;52.364;9.910;2023-04-06T05:19:30;101180.71;;;-1.56;79.71
55733;BME280;41637;52.364;9.910;2023-04-06T05:21:56;101176.64;;;-1.51;79.58
55733;BME280;41637;52.364;9.910;2023-04-06T05:24:24;101179.06;;;-1.45;79.48
55733;BME280;41637;52.364;9.910;2023-04-06T05:26:51;101176.36;;;-1.40;79.33
55733;BME280;41637;52.364;9.910;2023-04-06T05:29:18;101178.02;;;-1.36;79.19
55733;BME280;41637;52.364;9.910;2023-04-06T05:31:46;101176.20;;;-1.31;79.14
55733;BME280;41637;52.364;9.910;2023-04-06T05:34:13;101177.64;;;-1.26;79.15
55733;BME280;41637;52.364;9.910;2023-04-06T05:36:40;101175.71;;;-1.19;79.03
55733;BME280;41637;52.364;9.910;2023-04-06T05:39:07;101172.02;;;-1.13;79.09
55733;BME280;41637;52.364;9.910;2023-04-06T05:41:34;101168.81;;;-1.05;78.87
55733;BME280;41637;52.364;9.910;2023-04-06T05:44:01;101172.48;;;-0.96;78.82
55733;BME280;41637;52.364;9.910;2023-04-06T05:46:28;101171.12;;;-0.85;78.68
55733;BME280;41637;52.364;9.910;2023-04-06T05:48:55;101164.07;;;-0.74;78.49
55733;BME280;41637;52.364;9.910;2023-04-06T05:51:22;101166.51;;;-0.63;78.22
55733;BME280;41637;52.364;9.910;2023-04-06T05:53:49;101167.28;;;-0.52;78.14
55733;BME280;41637;52.364;9.910;2023-04-06T05:56:16;101169.38;;;-0.41;77.93
55733;BME280;41637;52.364;9.910;2023-04-06T05:58:43;101170.10;;;-0.30;77.83
55733;BME280;41637;52.364;9.910;2023-04-06T06:01:09;101165.73;;;-0.18;77.69
55733;BME280;41637;52.364;9.910;2023-04-06T06:03:36;101163.91;;;-0.06;77.46
55733;BME280;41637;52.364;9.910;2023-04-06T06:06:03;101163.45;;;0.08;77.33
55733;BME280;41637;52.364;9.910;2023-04-06T06:08:31;101161.40;;;0.21;77.13
55733;BME280;41637;52.364;9.910;2023-04-06T06:10:58;101162.10;;;0.35;76.93
55733;BME280;41637;52.364;9.910;2023-04-06T06:13:24;101165.48;;;0.50;76.54
55733;BME280;41637;52.364;9.910;2023-04-06T06:15:51;101165.33;;;0.66;76.15
55733;BME280;41637;52.364;9.910;2023-04-06T06:18:18;101164.25;;;0.83;75.92
55733;BME280;41637;52.364;9.910;2023-04-06T06:20:45;101161.92;;;0.97;75.50
55733;BME280;41637;52.364;9.910;2023-04-06T06:23:12;101163.35;;;1.12;75.01
55733;BME280;41637;52.364;9.910;2023-04-06T06:25:39;101161.60;;;1.28;74.50
55733;BME280;41637;52.364;9.910;2023-04-06T06:28:05;101163.93;;;1.42;73.95
55733;BME280;41637;52.364;9.910;2023-04-06T06:30:32;101165.61;;;1.56;73.90
55733;BME280;41637;52.364;9.910;2023-04-06T06:32:59;101170.83;;;1.69;72.92
55733;BME280;41637;52.364;9.910;2023-04-06T06:35:26;101169.33;;;1.81;72.91
55733;BME280;41637;52.364;9.910;2023-04-06T06:37:52;101173.08;;;1.95;72.63
55733;BME280;41637;52.364;9.910;2023-04-06T06:40:19;101175.10;;;2.08;72.32
55733;BME280;41637;52.364;9.910;2023-04-06T06:42:50;101175.39;;;2.21;72.16
55733;BME280;41637;52.364;9.910;2023-04-06T06:45:17;101175.77;;;2.36;72.20
55733;BME280;41637;52.364;9.910;2023-04-06T06:47:44;101177.10;;;2.49;71.63
55733;BME280;41637;52.364;9.910;2023-04-06T06:50:11;101178.60;;;2.59;71.19
55733;BME280;41637;52.364;9.910;2023-04-06T06:52:38;101176.73;;;2.71;70.75
55733;BME280;41637;52.364;9.910;2023-04-06T06:55:04;101178.81;;;2.83;70.34
55733;BME280;41637;52.364;9.910;2023-04-06T06:57:31;101173.65;;;2.96;70.33
55733;BME280;41637;52.364;9.910;2023-04-06T06:59:58;101168.16;;;3.11;70.55
55733;BME280;41637;52.364;9.910;2023-04-06T07:02:26;101164.22;;;3.26;70.32
55733;BME280;41637;52.364;9.910;2023-04-06T07:04:52;101163.51;;;3.43;70.26
55733;BME280;41637;52.364;9.910;2023-04-06T07:07:19;101164.96;;;3.56;70.00
55733;BME280;41637;52.364;9.910;2023-04-06T07:09:46;101168.20;;;3.68;69.77
55733;BME280;41637;52.364;9.910;2023-04-06T07:12:13;101163.54;;;3.83;69.36
55733;BME280;41637;52.364;9.910;2023-04-06T07:14:39;101161.34;;;4.00;68.94
55733;BME280;41637;52.364;9.910;2023-04-06T07:17:07;101156.86;;;4.15;68.76
55733;BME280;41637;52.364;9.910;2023-04-06T07:19:34;101156.41;;;4.29;68.49
55733;BME280;41637;52.364;9.910;2023-04-06T07:22:00;101159.11;;;4.39;66.64
55733;BME280;41637;52.364;9.910;2023-04-06T07:24:28;101157.90;;;4.48;63.58
55733;BME280;41637;52.364;9.910;2023-04-06T07:26:55;101156.80;;;4.57;63.23
55733;BME280;41637;52.364;9.910;2023-04-06T07:29:23;101156.48;;;4.70;63.00
55733;BME280;41637;52.364;9.910;2023-04-06T07:31:49;101157.29;;;4.81;62.08
55733;BME280;41637;52.364;9.910;2023-04-06T07:34:16;101154.35;;;4.92;61.98
55733;BME280;41637;52.364;9.910;2023-04-06T07:36:43;101158.87;;;5.04;62.01
55733;BME280;41637;52.364;9.910;2023-04-06T07:39:09;101158.87;;;5.20;61.38
55733;BME280;41637;52.364;9.910;2023-04-06T07:41:37;101155.58;;;5.34;60.49
55733;BME280;41637;52.364;9.910;2023-04-06T07:44:04;101155.98;;;5.47;59.93
55733;BME280;41637;52.364;9.910;2023-04-06T07:46:31;101157.38;;;5.60;59.30
55733;BME280;41637;52.364;9.910;2023-04-06T07:48:59;101152.84;;;5.74;58.40
55733;BME280;41637;52.364;9.910;2023-04-06T07:51:27;101156.13;;;5.89;58.22
55733;BME280;41637;52.364;9.910;2023-04-06T07:53:53;101158.09;;;6.09;57.97
55733;BME280;41637;52.364;9.910;2023-04-06T07:56:21;101158.61;;;6.29;57.14
55733;BME280;41637;52.364;9.910;2023-04-06T07:58:47;101159.19;;;6.48;56.10
55733;BME280;41637;52.364;9.910;2023-04-06T08:01:14;101153.48;;;6.65;54.72
55733;BME280;41637;52.364;9.910;2023-04-06T08:03:41;101154.77;;;6.80;53.23
55733;BME280;41637;52.364;9.910;2023-04-06T08:06:08;101152.89;;;6.93;51.30
55733;BME280;41637;52.364;9.910;2023-04-06T08:08:34;101152.60;;;7.04;49.68
55733;BME280;41637;52.364;9.910;2023-04-06T08:11:01;101156.33;;;7.15;50.04
55733;BME280;41637;52.364;9.910;2023-04-06T08:13:28;101152.58;;;7.33;50.65
55733;BME280;41637;52.364;9.910;2023-04-06T08:15:55;101153.59;;;7.54;49.63
55733;BME280;41637;52.364;9.910;2023-04-06T08:18:21;101153.08;;;7.67;48.16
55733;BME280;41637;52.364;9.910;2023-04-06T08:20:48;101154.18;;;7.82;48.37
55733;BME280;41637;52.364;9.910;2023-04-06T08:23:16;101153.48;;;7.89;47.37
55733;BME280;41637;52.364;9.910;2023-04-06T08:25:42;101153.60;;;7.93;47.26
55733;BME280;41637;52.364;9.910;2023-04-06T08:28:09;101147.49;;;7.98;47.88
55733;BME280;41637;52.364;9.910;2023-04-06T08:30:36;101148.01;;;8.04;47.37
55733;BME280;41637;52.364;9.910;2023-04-06T08:33:03;101144.83;;;8.13;48.02
55733;BME280;41637;52.364;9.910;2023-04-06T08:35:30;101150.64;;;8.26;48.16
55733;BME280;41637;52.364;9.910;2023-04-06T08:37:57;101150.50;;;8.35;48.05
55733;BME280;41637;52.364;9.910;2023-04-06T08:40:24;101150.27;;;8.43;47.55
55733;BME280;41637;52.364;9.910;2023-04-06T08:42:55;101146.02;;;8.52;47.52
55733;BME280;41637;52.364;9.910;2023-04-06T08:45:23;101142.11;;;8.65;47.44
55733;BME280;41637;52.364;9.910;2023-04-06T08:47:51;101137.77;;;8.75;46.71
55733;BME280;41637;52.364;9.910;2023-04-06T08:50:19;101139.38;;;8.86;46.96
55733;BME280;41637;52.364;9.910;2023-04-06T08:52:47;101134.70;;;9.01;46.99
55733;BME280;41637;52.364;9.910;2023-04-06T08:55:15;101133.95;;;9.14;46.36
55733;BME280;41637;52.364;9.910;2023-04-06T08:57:42;101132.31;;;9.21;45.44
55733;BME280;41637;52.364;9.910;2023-04-06T09:00:10;101133.39;;;9.31;44.80
55733;BME280;41637;52.364;9.910;2023-04-06T09:02:43;101134.89;;;9.37;44.26
55733;BME280;41637;52.364;9.910;2023-04-06T09:05:12;101131.95;;;9.44;44.46
55733;BME280;41637;52.364;9.910;2023-04-06T09:07:39;101135.89;;;9.55;43.90
55733;BME280;41637;52.364;9.910;2023-04-06T09:10:07;101137.41;;;9.63;43.16
55733;BME280;41637;52.364;9.910;2023-04-06T09:12:34;101132.99;;;9.73;43.36
55733;BME280;41637;52.364;9.910;2023-04-06T09:15:02;101134.61;;;9.81;42.68
55733;BME280;41637;52.364;9.910;2023-04-06T09:17:30;101135.16;;;9.92;42.57
55733;BME280;41637;52.364;9.910;2023-04-06T09:20:00;101137.70;;;10.05;42.42
55733;BME280;41637;52.364;9.910;2023-04-06T09:22:35;101136.40;;;10.13;41.47
55733;BME280;41637;52.364;9.910;2023-04-06T09:25:02;101135.47;;;10.24;41.57
55733;BME280;41637;52.364;9.910;2023-04-06T09:27:34;101135.16;;;10.37;41.73
55733;BME280;41637;52.364;9.910;2023-04-06T09:30:10;101135.39;;;10.50;41.76
55733;BME280;41637;52.364;9.910;2023-04-06T09:33:05;101134.99;;;10.64;41.57
55733;BME280;41637;52.364;9.910;2023-04-06T09:35:31;101129.43;;;10.76;40.99
55733;BME280;41637;52.364;9.910;2023-04-06T09:38:10;101125.49;;;10.85;40.59
55733;BME280;41637;52.364;9.910;2023-04-06T09:40:48;101121.73;;;10.98;41.02
55733;BME280;41637;52.364;9.910;2023-04-06T09:43:27;101123.08;;;11.14;40.47
55733;BME280;41637;52.364;9.910;2023-04-06T09:45:55;101122.39;;;11.30;39.66
55733;BME280;41637;52.364;9.910;2023-04-06T09:48:24;101118.77;;;11.40;38.33
55733;BME280;41637;52.364;9.910;2023-04-06T09:50:59;101115.75;;;11.53;38.99
55733;BME280;41637;52.364;9.910;2023-04-06T09:53:27;101116.49;;;11.62;38.61
55733;BME280;41637;52.364;9.910;2023-04-06T09:56:02;101114.36;;;11.67;37.81
55733;BME280;41637;52.364;9.910;2023-04-06T09:58:34;101111.85;;;11.78;38.55
55733;BME280;41637;52.364;9.910;2023-04-06T10:01:10;101112.59;;;11.82;38.28
55733;BME280;41637;52.364;9.910;2023-04-06T10:04:50;101107.91;;;11.88;38.45
55733;BME280;41637;52.364;9.910;2023-04-06T10:06:44;101107.63;;;12.00;38.17
55733;BME280;41637;52.364;9.910;2023-04-06T10:09:14;101095.41;;;12.09;37.11
55733;BME280;41637;52.364;9.910;2023-04-06T10:11:42;101097.65;;;12.16;37.07
55733;BME280;41637;52.364;9.910;2023-04-06T10:14:09;101096.08;;;12.25;36.49
55733;BME280;41637;52.364;9.910;2023-04-06T10:16:36;101095.52;;;12.32;36.93
55733;BME280;41637;52.364;9.910;2023-04-06T10:19:18;101089.41;;;12.42;36.31
55733;BME280;41637;52.364;9.910;2023-04-06T10:21:51;101081.58;;;12.52;35.83
55733;BME280;41637;52.364;9.910;2023-04-06T10:24:20;101088.63;;;12.67;35.57
55733;BME280;41637;52.364;9.910;2023-04-06T10:27:01;101095.04;;;12.76;34.54
55733;BME280;41637;52.364;9.910;2023-04-06T10:29:42;101092.41;;;12.71;33.14
55733;BME280;41637;52.364;9.910;2023-04-06T10:32:09;101088.35;;;12.70;34.85
55733;BME280;41637;52.364;9.910;2023-04-06T10:34:36;101085.22;;;12.81;34.85
55733;BME280;41637;52.364;9.910;2023-04-06T10:37:16;101081.69;;;12.91;34.72
55733;BME280;41637;52.364;9.910;2023-04-06T10:39:46;101075.34;;;13.01;34.17
55733;BME280;41637;52.364;9.910;2023-04-06T10:42:13;101071.27;;;13.17;33.82
55733;BME280;41637;52.364;9.910;2023-04-06T10:44:43;101074.52;;;13.31;33.49
55733;BME280;41637;52.364;9.910;2023-04-06T10:47:16;101073.00;;;13.31;31.81
55733;BME280;41637;52.364;9.910;2023-04-06T10:49:44;101066.35;;;13.33;32.23
55733;BME280;41637;52.364;9.910;2023-04-06T10:52:11;101063.90;;;13.39;32.64
55733;BME280;41637;52.364;9.910;2023-04-06T10:54:42;101066.04;;;13.49;32.47
55733;BME280;41637;52.364;9.910;2023-04-06T10:57:15;101064.20;;;13.55;32.34
55733;BME280;41637;52.364;9.910;2023-04-06T10:59:42;101057.01;;;13.64;31.94
55733;BME280;41637;52.364;9.910;2023-04-06T11:02:19;101054.45;;;13.70;31.97
55733;BME280;41637;52.364;9.910;2023-04-06T11:04:56;101059.99;;;13.78;32.00
55733;BME280;41637;52.364;9.910;2023-04-06T11:07:24;101062.52;;;13.86;31.56
55733;BME280;41637;52.364;9.910;2023-04-06T11:09:51;101058.20;;;13.94;31.35
55733;BME280;41637;52.364;9.910;2023-04-06T11:12:38;101054.95;;;13.99;31.00
55733;BME280;41637;52.364;9.910;2023-04-06T11:15:05;101058.27;;;13.99;30.37
55733;BME280;41637;52.364;9.910;2023-04-06T11:17:34;101053.72;;;13.96;30.04
55733;BME280;41637;52.364;9.910;2023-04-06T11:20:03;101055.73;;;13.96;30.80
55733;BME280;41637;52.364;9.910;2023-04-06T11:22:31;101059.25;;;13.99;30.42
55733;BME280;41637;52.364;9.910;2023-04-06T11:25:15;101058.09;;;13.91;30.31
55733;BME280;41637;52.364;9.910;2023-04-06T11:27:44;101056.16;;;13.98;30.56
55733;BME280;41637;52.364;9.910;2023-04-06T11:30:12;101054.31;;;14.04;30.26
55733;BME280;41637;52.364;9.910;2023-04-06T11:32:44;101056.78;;;14.12;30.33
55733;BME280;41637;52.364;9.910;2023-04-06T11:35:21;101060.73;;;14.07;29.25
55733;BME280;41637;52.364;9.910;2023-04-06T11:37:49;101059.45;;;13.94;30.10
55733;BME280;41637;52.364;9.910;2023-04-06T11:40:25;101055.70;;;13.97;30.37
55733;BME280;41637;52.364;9.910;2023-04-06T11:42:53;101052.52;;;14.00;30.56
55733;BME280;41637;52.364;9.910;2023-04-06T11:45:21;101053.55;;;14.10;30.60
55733;BME280;41637;52.364;9.910;2023-04-06T11:47:58;101052.55;;;14.25;30.05
55733;BME280;41637;52.364;9.910;2023-04-06T11:50:32;101049.60;;;14.47;30.64
55733;BME280;41637;52.364;9.910;2023-04-06T11:53:01;101049.23;;;14.62;29.72
55733;BME280;41637;52.364;9.910;2023-04-06T11:55:29;101046.54;;;14.83;29.97
55733;BME280;41637;52.364;9.910;2023-04-06T11:58:03;101038.50;;;15.22;29.52
55733;BME280;41637;52.364;9.910;2023-04-06T12:00:29;101039.95;;;15.60;28.53
55733;BME280;41637;52.364;9.910;2023-04-06T12:03:00;101031.66;;;15.79;27.71
55733;BME280;41637;52.364;9.910;2023-04-06T12:05:28;101028.79;;;15.98;27.78
55733;BME280;41637;52.364;9.910;2023-04-06T12:07:54;101032.55;;;16.33;27.16
55733;BME280;41637;52.364;9.910;2023-04-06T12:10:22;101030.83;;;16.77;27.10
55733;BME280;41637;52.364;9.910;2023-04-06T12:12:49;101031.49;;;17.10;26.53
55733;BME280;41637;52.364;9.910;2023-04-06T12:15:16;101026.09;;;17.27;26.04
55733;BME280;41637;52.364;9.910;2023-04-06T12:17:43;101022.85;;;17.72;26.31
55733;BME280;41637;52.364;9.910;2023-04-06T12:20:10;101026.02;;;18.08;26.03
55733;BME280;41637;52.364;9.910;2023-04-06T12:22:51;101020.08;;;18.56;25.36
55733;BME280;41637;52.364;9.910;2023-04-06T12:25:18;101017.84;;;18.96;24.78
55733;BME280;41637;52.364;9.910;2023-04-06T12:27:45;101014.49;;;19.25;24.59
55733;BME280;41637;52.364;9.910;2023-04-06T12:30:12;101014.58;;;19.54;23.67
55733;BME280;41637;52.364;9.910;2023-04-06T12:32:38;101011.14;;;19.83;23.77
55733;BME280;41637;52.364;9.910;2023-04-06T12:35:06;101011.91;;;20.24;23.62
55733;BME280;41637;52.364;9.910;2023-04-06T12:37:35;101006.17;;;21.11;22.97
55733;BME280;41637;52.364;9.910;2023-04-06T12:40:01;101012.10;;;22.13;21.37
55733;BME280;41637;52.364;9.910;2023-04-06T12:42:29;101008.46;;;23.06;21.02
55733;BME280;41637;52.364;9.910;2023-04-06T12:44:57;101006.43;;;23.87;20.30
55733;BME280;41637;52.364;9.910;2023-04-06T12:47:25;101007.42;;;24.57;19.06
55733;BME280;41637;52.364;9.910;2023-04-06T12:49:53;100995.85;;;25.32;18.81
55733;BME280;41637;52.364;9.910;2023-04-06T12:52:21;100989.27;;;25.71;18.00
55733;BME280;41637;52.364;9.910;2023-04-06T12:54:48;100991.54;;;25.86;18.09
55733;BME280;41637;52.364;9.910;2023-04-06T12:57:16;100996.18;;;26.30;17.71